Time;durP1;ratioP1;P1;durP2;ratioP2;P2;SDS_P1;SDS_P2;PMS_P1;PMS_P2;Temp;Humidity;BMP_temperature;BMP_pressure;BME280_temperature;BME280_humidity;BME280_pressure;Samples;Min_cycle;Max_cycle;Signal;HPM_P1;HPM_P2
2023/03/27 00:00:44;;;;;;;12.80;2.30;;;;;;;3.82;100.00;101294.13;4973782;28;20555;-70
2023/03/27 00:03:14;;;;;;;8.48;2.03;;;;;;;3.86;100.00;101306.19;4986105;28;20034;-72
2023/03/27 00:05:40;;;;;;;13.50;2.88;;;;;;;3.90;100.00;101312.88;4995111;28;20033;-72
2023/03/27 00:08:09;;;;;;;16.25;2.65;;;;;;;4.00;100.00;101324.25;4977255;28;20450;-70
2023/03/27 00:10:36;;;;;;;13.00;2.13;;;;;;;3.96;100.00;101319.41;4995096;28;20113;-71
2023/03/27 00:13:02;;;;;;;10.77;2.25;;;;;;;3.96;100.00;101324.75;4977655;28;20477;-71
2023/03/27 00:15:32;;;;;;;9.00;2.13;;;;;;;3.95;100.00;101334.59;4995203;28;20033;-72
2023/03/27 00:18:02;;;;;;;12.45;2.38;;;;;;;3.95;100.00;101333.78;4960312;28;20034;-73
2023/03/27 00:20:30;;;;;;;9.38;2.72;;;;;;;3.93;100.00;101342.00;4975117;28;20032;-71
2023/03/27 00:22:59;;;;;;;12.18;2.47;;;;;;;3.92;100.00;101348.34;4975544;28;20077;-72
2023/03/27 00:25:27;;;;;;;16.25;2.63;;;;;;;3.98;100.00;101339.63;4975541;28;20024;-72
2023/03/27 00:27:55;;;;;;;10.07;2.35;;;;;;;3.99;100.00;101353.88;4975194;28;20030;-73
2023/03/27 00:30:21;;;;;;;11.27;2.00;;;;;;;3.95;100.00;101352.53;4958088;28;20018;-71
2023/03/27 00:32:47;;;;;;;14.77;2.42;;;;;;;3.92;100.00;101359.06;4974029;28;20074;-73
2023/03/27 00:35:13;;;;;;;14.80;2.20;;;;;;;3.89;100.00;101364.75;4975456;28;20470;-74
2023/03/27 00:37:39;;;;;;;6.97;1.95;;;;;;;3.82;100.00;101369.09;4982575;28;20033;-71
2023/03/27 00:40:06;;;;;;;9.25;1.98;;;;;;;3.75;100.00;101358.22;4977251;28;20031;-73
2023/03/27 00:42:33;;;;;;;11.35;1.80;;;;;;;3.76;100.00;101362.59;4994108;28;20506;-73
2023/03/27 00:44:58;;;;;;;12.15;2.80;;;;;;;3.73;100.00;101355.72;4994250;28;20073;-71
2023/03/27 00:47:37;;;;;;;10.50;2.40;;;;;;;3.73;100.00;101362.91;4994553;28;20049;-73
2023/03/27 00:50:09;;;;;;;13.20;2.80;;;;;;;3.75;100.00;101368.09;4975596;28;20022;-70
2023/03/27 00:52:35;;;;;;;6.90;1.80;;;;;;;3.78;100.00;101367.78;4983042;28;20037;-72
2023/03/27 00:55:06;;;;;;;6.30;1.77;;;;;;;3.80;100.00;101376.47;4974583;28;20062;-71
2023/03/27 00:57:31;;;;;;;9.20;1.80;;;;;;;3.82;100.00;101385.16;4974588;28;20026;-71
2023/03/27 01:00:00;;;;;;;7.82;2.40;;;;;;;3.77;100.00;101387.50;4957417;28;20035;-69
2023/03/27 01:02:26;;;;;;;8.40;1.92;;;;;;;3.70;100.00;101387.34;4972198;28;20117;-70
2023/03/27 01:04:53;;;;;;;7.18;1.88;;;;;;;3.64;100.00;101391.53;4976994;28;20102;-68
2023/03/27 01:07:20;;;;;;;7.03;2.13;;;;;;;3.61;100.00;101401.69;4975364;28;20027;-69
2023/03/27 01:09:46;;;;;;;11.13;2.05;;;;;;;3.53;100.00;101386.47;4974453;28;20037;-71
2023/03/27 01:12:37;;;;;;;8.80;2.10;;;;;;;3.51;100.00;101396.50;4974371;28;20035;-70
2023/03/27 01:15:38;;;;;;;9.13;1.95;;;;;;;3.52;100.00;101392.84;4974379;28;20112;-73
2023/03/27 01:18:37;;;;;;;10.07;1.70;;;;;;;3.53;100.00;101392.69;4993625;28;20458;-71
2023/03/27 01:21:29;;;;;;;10.85;2.25;;;;;;;3.52;100.00;101403.56;4971427;28;20034;-71
2023/03/27 01:24:07;;;;;;;10.50;2.35;;;;;;;3.49;100.00;101402.03;4974467;28;20042;-73
2023/03/27 01:26:58;;;;;;;5.82;1.80;;;;;;;3.45;100.00;101411.38;4974598;28;20431;-70
2023/03/27 01:29:35;;;;;;;6.78;2.00;;;;;;;3.45;100.00;101411.38;4976797;28;20026;-70
2023/03/27 01:32:16;;;;;;;6.38;1.98;;;;;;;3.46;100.00;101413.06;4976232;28;20101;-71
2023/03/27 01:34:52;;;;;;;9.15;2.00;;;;;;;3.51;100.00;101416.06;4993544;28;20054;-73
2023/03/27 01:37:46;;;;;;;7.65;2.08;;;;;;;3.56;100.00;101412.91;4977341;28;20033;-69
2023/03/27 01:40:15;;;;;;;7.90;2.00;;;;;;;3.59;100.00;101417.91;4989138;28;20402;-73
2023/03/27 01:42:50;;;;;;;8.40;1.80;;;;;;;3.62;100.00;101422.94;4973552;28;20033;-70
2023/03/27 01:45:37;;;;;;;8.13;1.90;;;;;;;3.65;100.00;101432.50;4974201;28;20030;-69
2023/03/27 01:48:21;;;;;;;7.20;2.20;;;;;;;3.68;100.00;101437.50;4974212;28;20027;-73
2023/03/27 01:50:55;;;;;;;7.35;1.98;;;;;;;3.76;100.00;101439.34;4973285;28;20509;-73
2023/03/27 01:54:07;;;;;;;7.65;2.20;;;;;;;3.85;100.00;101435.69;4980206;28;20030;-72
2023/03/27 01:57:01;;;;;;;7.30;2.10;;;;;;;3.93;100.00;101429.53;4960808;28;20066;-73
2023/03/27 01:59:29;;;;;;;8.35;2.30;;;;;;;3.94;100.00;101445.44;4974032;28;20073;-71
2023/03/27 02:02:18;;;;;;;9.10;2.22;;;;;;;3.97;100.00;101436.19;4954136;28;20041;-73
2023/03/27 02:04:51;;;;;;;7.13;1.88;;;;;;;4.02;100.00;101434.69;4956564;28;20066;-70
2023/03/27 02:07:37;;;;;;;6.32;1.90;;;;;;;4.08;100.00;101449.28;4973422;28;20023;-73
2023/03/27 02:10:07;;;;;;;6.68;1.92;;;;;;;4.07;100.00;101440.38;4973898;28;20455;-71
2023/03/27 02:12:36;;;;;;;10.10;2.15;;;;;;;4.05;100.00;101449.59;4956105;28;20037;-72
2023/03/27 02:15:08;;;;;;;7.40;2.10;;;;;;;4.00;100.00;101457.28;4956934;28;20505;-70
2023/03/27 02:17:43;;;;;;;9.85;2.50;;;;;;;3.97;100.00;101458.47;4955759;28;20023;-69
2023/03/27 02:20:16;;;;;;;8.77;2.20;;;;;;;3.93;100.00;101459.81;4973457;28;20483;-70
2023/03/27 02:22:44;;;;;;;8.75;2.33;;;;;;;3.86;100.00;101473.00;4965142;28;20474;-70
2023/03/27 02:25:43;;;;;;;7.30;2.42;;;;;;;3.92;100.00;101476.03;4973630;28;20029;-68
2023/03/27 02:28:32;;;;;;;7.25;2.28;;;;;;;3.82;100.00;101478.84;4965089;28;20053;-73
2023/03/27 02:31:18;;;;;;;11.18;2.33;;;;;;;3.81;100.00;101485.22;4976274;28;20053;-71
2023/03/27 02:34:03;;;;;;;9.93;2.55;;;;;;;3.82;100.00;101489.56;4977196;28;20042;-72
2023/03/27 02:36:56;;;;;;;16.88;2.97;;;;;;;3.83;100.00;101485.88;4959920;28;20026;-72
2023/03/27 02:39:36;;;;;;;9.15;2.55;;;;;;;3.86;100.00;101485.56;4996922;28;20060;-70
2023/03/27 02:42:17;;;;;;;8.90;2.78;;;;;;;3.80;100.00;101488.91;4996915;28;20022;-70
2023/03/27 02:44:50;;;;;;;8.20;2.47;;;;;;;3.69;100.00;101490.06;4996995;28;20540;-71
2023/03/27 02:47:41;;;;;;;10.25;2.95;;;;;;;3.66;100.00;101501.91;4996482;28;20038;-70
2023/03/27 02:50:13;;;;;;;8.55;2.40;;;;;;;3.59;100.00;101494.72;4970415;28;20478;-73
2023/03/27 02:52:43;;;;;;;11.00;2.47;;;;;;;3.55;100.00;101496.88;4965020;28;20035;-72
2023/03/27 02:55:22;;;;;;;7.90;1.98;;;;;;;3.54;100.00;101501.38;4977092;28;20030;-70
2023/03/27 02:57:55;;;;;;;7.75;2.20;;;;;;;3.46;100.00;101500.53;4976880;28;20128;-70
2023/03/27 03:00:25;;;;;;;10.57;2.42;;;;;;;3.42;100.00;101502.69;4977075;28;20023;-70
2023/03/27 03:03:26;;;;;;;9.02;2.03;;;;;;;3.41;100.00;101516.22;4975410;28;20018;-70
2023/03/27 03:05:54;;;;;;;10.57;2.28;;;;;;;3.38;100.00;101517.38;4958894;28;20375;-71
2023/03/27 03:08:20;;;;;;;7.15;2.05;;;;;;;3.34;100.00;101524.91;4976040;28;20026;-70
2023/03/27 03:10:46;;;;;;;11.23;2.90;;;;;;;3.37;100.00;101521.06;4976673;28;20023;-73
2023/03/27 03:13:13;;;;;;;9.68;2.10;;;;;;;3.36;100.00;101530.09;4976602;28;20035;-72
2023/03/27 03:15:39;;;;;;;6.90;2.58;;;;;;;3.30;100.00;101520.84;4959140;28;20120;-70
2023/03/27 03:18:04;;;;;;;10.65;2.13;;;;;;;3.28;100.00;101522.03;4976752;28;20066;-73
2023/03/27 03:20:30;;;;;;;10.02;2.30;;;;;;;3.25;100.00;101533.88;4975904;28;20027;-69
2023/03/27 03:22:56;;;;;;;14.98;2.33;;;;;;;3.23;100.00;101533.22;4962167;28;20366;-71
2023/03/27 03:25:22;;;;;;;9.63;2.17;;;;;;;3.22;100.00;101534.19;4978599;28;20050;-72
2023/03/27 03:27:48;;;;;;;9.20;2.00;;;;;;;3.24;100.00;101542.91;4994803;28;20034;-68
2023/03/27 03:30:13;;;;;;;9.88;2.30;;;;;;;3.27;100.00;101547.94;4995635;28;20121;-71
2023/03/27 03:32:38;;;;;;;5.35;2.00;;;;;;;3.25;100.00;101549.09;4978065;28;20370;-72
2023/03/27 03:35:05;;;;;;;6.82;1.90;;;;;;;3.21;100.00;101563.78;4995963;28;20041;-70
2023/03/27 03:37:37;;;;;;;4.70;1.80;;;;;;;3.15;100.00;101562.56;4975340;28;20088;-69
2023/03/27 03:40:10;;;;;;;8.32;2.17;;;;;;;3.11;100.00;101561.19;4989755;28;20041;-75
2023/03/27 03:42:36;;;;;;;8.20;2.10;;;;;;;3.10;100.00;101568.41;4980370;28;20026;-70
2023/03/27 03:45:01;;;;;;;10.68;2.13;;;;;;;3.06;100.00;101568.88;4975129;28;20073;-73
2023/03/27 03:47:26;;;;;;;8.32;1.95;;;;;;;3.04;100.00;101578.91;4975990;28;20034;-71
2023/03/27 03:49:52;;;;;;;7.75;2.08;;;;;;;3.01;100.00;101582.72;4961506;28;20054;-73
2023/03/27 03:52:17;;;;;;;12.00;2.20;;;;;;;3.04;100.00;101581.56;4976118;28;20372;-71
2023/03/27 03:54:43;;;;;;;5.53;1.90;;;;;;;3.01;100.00;101586.22;4958061;28;20121;-68
2023/03/27 03:57:08;;;;;;;10.05;2.35;;;;;;;2.99;100.00;101590.91;4975943;28;20069;-73
2023/03/27 03:59:34;;;;;;;6.68;2.00;;;;;;;3.05;100.00;101591.25;4976068;28;20034;-70
2023/03/27 04:01:59;;;;;;;8.25;2.35;;;;;;;3.04;100.00;101592.28;4986778;28;20062;-69
2023/03/27 04:04:24;;;;;;;8.90;2.00;;;;;;;3.06;100.00;101600.97;4995616;28;20030;-71
2023/03/27 04:06:50;;;;;;;12.77;2.15;;;;;;;3.05;100.00;101602.81;4995173;28;20022;-71
2023/03/27 04:09:15;;;;;;;4.78;1.90;;;;;;;3.04;100.00;101600.28;4982692;28;20027;-73
2023/03/27 04:11:40;;;;;;;10.98;2.20;;;;;;;3.07;100.00;101611.50;4975820;28;20033;-73
2023/03/27 04:14:06;;;;;;;9.40;2.30;;;;;;;3.04;100.00;101608.31;4976040;28;20019;-72
2023/03/27 04:16:31;;;;;;;9.20;1.92;;;;;;;3.04;100.00;101616.34;4975731;28;20023;-69
2023/03/27 04:18:57;;;;;;;9.35;1.83;;;;;;;3.00;100.00;101610.44;4957290;28;20031;-70
2023/03/27 04:21:25;;;;;;;7.30;2.28;;;;;;;2.96;100.00;101615.28;4975296;28;20107;-70
2023/03/27 04:23:50;;;;;;;10.55;2.38;;;;;;;2.96;100.00;101617.09;4975269;28;20181;-71
2023/03/27 04:26:16;;;;;;;12.38;2.30;;;;;;;2.94;100.00;101630.63;4958105;28;20031;-73
2023/03/27 04:28:42;;;;;;;8.75;2.75;;;;;;;2.92;100.00;101627.28;4975335;28;20023;-70
2023/03/27 04:31:09;;;;;;;10.10;2.42;;;;;;;2.86;100.00;101635.91;4975465;28;20035;-70
2023/03/27 04:33:45;;;;;;;10.85;2.20;;;;;;;2.83;100.00;101647.75;4975263;28;20230;-71
2023/03/27 04:36:13;;;;;;;7.68;2.25;;;;;;;2.83;100.00;101652.25;4958076;28;20030;-71
2023/03/27 04:38:39;;;;;;;12.68;2.40;;;;;;;2.83;100.00;101653.09;4970891;28;20556;-73
2023/03/27 04:41:05;;;;;;;7.07;2.30;;;;;;;2.81;100.00;101656.94;4971195;28;20041;-69
2023/03/27 04:43:31;;;;;;;5.43;1.80;;;;;;;2.80;100.00;101660.59;4994668;28;20092;-71
2023/03/27 04:45:56;;;;;;;8.23;2.70;;;;;;;2.79;100.00;101654.41;4994374;28;20030;-70
2023/03/27 04:48:21;;;;;;;5.07;2.10;;;;;;;2.79;100.00;101667.78;4994283;28;20077;-71
2023/03/27 04:50:50;;;;;;;6.55;1.85;;;;;;;2.79;100.00;101666.91;4994228;28;20089;-71
2023/03/27 04:53:19;;;;;;;4.15;1.85;;;;;;;2.76;100.00;101673.44;4992605;28;20061;-71
2023/03/27 04:55:45;;;;;;;10.07;2.33;;;;;;;2.76;100.00;101672.56;4979505;28;20481;-72
2023/03/27 04:58:12;;;;;;;7.60;1.95;;;;;;;2.76;100.00;101675.25;4957426;28;20023;-73
2023/03/27 05:00:39;;;;;;;6.97;1.83;;;;;;;2.72;100.00;101677.41;4972543;28;20099;-69
2023/03/27 05:03:04;;;;;;;10.07;2.25;;;;;;;2.74;100.00;101679.91;4957350;28;20035;-70
2023/03/27 05:05:29;;;;;;;9.18;2.13;;;;;;;2.72;100.00;101676.53;4975066;28;20498;-71
2023/03/27 05:07:55;;;;;;;12.38;2.00;;;;;;;2.79;100.00;101683.81;4957151;28;20109;-73
2023/03/27 05:10:20;;;;;;;6.05;1.88;;;;;;;2.87;100.00;101688.41;4974525;28;20034;-71
2023/03/27 05:12:52;;;;;;;10.57;2.28;;;;;;;2.89;100.00;101696.25;4986375;28;20101;-70
2023/03/27 05:15:19;;;;;;;6.60;2.03;;;;;;;2.87;100.00;101693.75;4986715;28;20057;-72
2023/03/27 05:17:51;;;;;;;8.57;2.20;;;;;;;2.86;100.00;101696.56;4993635;28;20374;-73
2023/03/27 05:20:17;;;;;;;6.93;2.30;;;;;;;2.83;100.00;101701.22;4994037;28;20180;-70
2023/03/27 05:22:43;;;;;;;8.45;2.03;;;;;;;2.81;100.00;101708.56;4994295;28;20037;-69
2023/03/27 05:25:10;;;;;;;9.48;2.33;;;;;;;2.84;100.00;101708.25;4993670;28;20030;-72
2023/03/27 05:27:36;;;;;;;12.68;2.60;;;;;;;2.90;100.00;101717.50;4993915;28;20418;-73
2023/03/27 05:30:01;;;;;;;13.02;2.63;;;;;;;2.88;100.00;101714.13;4974106;28;20069;-73
2023/03/27 05:32:27;;;;;;;9.57;2.30;;;;;;;2.94;100.00;101718.84;4956816;28;20029;-69
2023/03/27 05:34:55;;;;;;;7.13;2.10;;;;;;;2.95;100.00;101727.72;4974259;28;20042;-71
2023/03/27 05:37:21;;;;;;;8.43;2.33;;;;;;;2.99;100.00;101726.44;4974233;28;20096;-71
2023/03/27 05:39:46;;;;;;;8.75;2.40;;;;;;;2.99;100.00;101726.44;4973996;28;20027;-70
2023/03/27 05:42:15;;;;;;;7.82;2.55;;;;;;;2.99;100.00;101727.25;4974034;28;20026;-71
2023/03/27 05:44:44;;;;;;;8.70;2.40;;;;;;;3.00;100.00;101731.63;4965751;28;20030;-74
2023/03/27 05:47:11;;;;;;;7.78;2.45;;;;;;;3.04;100.00;101728.66;4974498;28;20382;-71
2023/03/27 05:49:38;;;;;;;9.93;2.88;;;;;;;3.08;100.00;101738.88;4974628;28;20050;-74
2023/03/27 05:52:03;;;;;;;9.68;2.55;;;;;;;3.13;100.00;101743.75;4973561;28;20441;-71
2023/03/27 05:54:28;;;;;;;8.90;2.47;;;;;;;3.14;100.00;101750.78;4974069;28;20113;-70
2023/03/27 05:56:54;;;;;;;12.02;2.70;;;;;;;3.16;100.00;101756.81;4956337;28;20035;-73
2023/03/27 05:59:20;;;;;;;6.80;2.35;;;;;;;3.17;100.00;101751.31;4973520;28;20054;-68
2023/03/27 06:01:47;;;;;;;7.20;2.25;;;;;;;3.20;100.00;101750.16;4971967;28;20065;-73
2023/03/27 06:04:14;;;;;;;11.02;2.33;;;;;;;3.21;100.00;101754.53;4973451;28;20031;-69
2023/03/27 06:06:40;;;;;;;4.97;1.98;;;;;;;3.24;100.00;101764.91;4973369;28;20452;-72
2023/03/27 06:09:08;;;;;;;6.00;2.10;;;;;;;3.23;100.00;101770.41;4973595;28;20027;-71
2023/03/27 06:11:34;;;;;;;10.52;2.70;;;;;;;3.23;100.00;101784.66;4973786;28;20085;-73
2023/03/27 06:13:59;;;;;;;6.68;2.45;;;;;;;3.19;100.00;101797.47;4972900;28;20347;-69
2023/03/27 06:16:27;;;;;;;7.22;2.40;;;;;;;3.16;100.00;101800.44;4956334;28;20038;-70
2023/03/27 06:18:52;;;;;;;7.82;2.40;;;;;;;3.11;100.00;101815.28;4973490;28;20065;-69
2023/03/27 06:21:18;;;;;;;7.20;2.42;;;;;;;2.99;100.00;101812.84;4973504;28;20048;-70
2023/03/27 06:23:43;;;;;;;4.40;2.78;;;;;;;2.88;100.00;101813.03;4973329;28;20031;-73
2023/03/27 06:26:09;;;;;;;17.52;10.98;;;;;;;2.80;100.00;101800.41;4955954;28;20062;-73
2023/03/27 06:28:34;;;;;;;14.55;11.93;;;;;;;2.76;100.00;101798.19;4973072;28;20037;-72
2023/03/27 06:31:00;;;;;;;7.07;5.28;;;;;;;2.76;100.00;101800.88;4974341;28;20039;-69
2023/03/27 06:33:28;;;;;;;9.65;3.00;;;;;;;2.72;100.00;101788.78;4972674;28;20050;-73
2023/03/27 06:35:58;;;;;;;5.57;2.63;;;;;;;2.73;100.00;101804.69;4985191;28;20031;-73
2023/03/27 06:38:30;;;;;;;4.95;2.60;;;;;;;2.72;100.00;101805.69;4992598;28;20409;-69
2023/03/27 06:40:55;;;;;;;8.00;2.70;;;;;;;2.72;100.00;101810.16;4975317;28;20381;-69
2023/03/27 06:43:21;;;;;;;5.70;2.60;;;;;;;2.71;100.00;101813.84;4993033;28;20037;-74
2023/03/27 06:45:48;;;;;;;4.85;3.10;;;;;;;2.73;100.00;101817.22;4992920;28;20022;-72
2023/03/27 06:48:15;;;;;;;7.40;3.63;;;;;;;2.77;100.00;101818.59;4991094;28;20033;-71
2023/03/27 06:50:41;;;;;;;8.38;3.95;;;;;;;2.76;100.00;101817.78;4975899;28;20355;-72
2023/03/27 06:53:07;;;;;;;10.63;3.17;;;;;;;2.77;100.00;101823.94;4972016;28;20062;-72
2023/03/27 06:55:33;;;;;;;5.47;2.50;;;;;;;2.76;100.00;101827.59;4975207;28;20347;-72
2023/03/27 06:58:00;;;;;;;7.35;2.50;;;;;;;2.78;100.00;101833.66;4974939;28;20034;-71
2023/03/27 07:00:33;;;;;;;7.05;2.33;;;;;;;2.82;100.00;101830.53;4991852;28;20028;-72
2023/03/27 07:03:01;;;;;;;5.63;2.47;;;;;;;2.84;100.00;101841.06;4975064;28;20454;-70
2023/03/27 07:05:30;;;;;;;5.93;2.97;;;;;;;2.82;100.00;101843.03;4975848;28;20031;-72
2023/03/27 07:07:56;;;;;;;4.10;2.30;;;;;;;2.86;100.00;101846.28;4968577;28;20045;-71
2023/03/27 07:10:23;;;;;;;6.88;2.60;;;;;;;2.88;100.00;101852.31;4991185;28;20034;-70
2023/03/27 07:12:50;;;;;;;7.32;2.40;;;;;;;2.91;100.00;101850.16;4976215;28;20110;-71
2023/03/27 07:15:17;;;;;;;4.47;2.10;;;;;;;2.91;100.00;101849.31;4972895;28;20030;-70
2023/03/27 07:17:43;;;;;;;8.07;2.65;;;;;;;2.93;100.00;101858.88;4956688;28;20023;-74
2023/03/27 07:20:12;;;;;;;7.05;2.17;;;;;;;2.96;100.00;101855.91;4987098;28;20053;-72
2023/03/27 07:22:41;;;;;;;8.48;2.72;;;;;;;3.01;100.00;101853.63;4976755;28;20062;-71
2023/03/27 07:25:09;;;;;;;4.72;2.55;;;;;;;3.09;100.00;101858.22;4976202;28;20469;-69
2023/03/27 07:27:34;;;;;;;8.23;3.13;;;;;;;3.14;100.00;101863.97;4959306;28;20061;-69
2023/03/27 07:30:00;;;;;;;6.45;2.42;;;;;;;3.23;100.00;101866.72;4976012;28;20054;-77
2023/03/27 07:32:28;;;;;;;8.30;2.75;;;;;;;3.29;100.00;101864.28;4959287;28;20049;-74
2023/03/27 07:34:54;;;;;;;7.43;2.33;;;;;;;3.32;100.00;101872.00;4958014;28;20074;-76
2023/03/27 07:37:21;;;;;;;7.32;2.35;;;;;;;3.40;100.00;101873.06;4977432;28;20068;-73
2023/03/27 07:39:47;;;;;;;5.25;2.08;;;;;;;3.42;100.00;101877.28;4995977;28;20046;-76
2023/03/27 07:42:22;;;;;;;4.03;2.22;;;;;;;3.46;100.00;101877.84;4996201;28;20474;-80
2023/03/27 07:44:48;;;;;;;6.50;2.38;;;;;;;3.54;100.00;101875.22;4978141;28;20117;-73
2023/03/27 07:47:13;;;;;;;7.32;2.40;;;;;;;3.60;100.00;101879.13;4977801;28;20173;-69
2023/03/27 07:49:38;;;;;;;10.18;2.13;;;;;;;3.67;100.00;101894.41;4995484;28;20026;-74
2023/03/27 07:52:11;;;;;;;7.95;1.95;;;;;;;3.68;100.00;101888.06;4972821;28;20081;-77
2023/03/27 07:54:36;;;;;;;6.18;2.28;;;;;;;3.70;100.00;101891.44;4976075;28;20055;-75
2023/03/27 07:57:05;;;;;;;11.32;2.25;;;;;;;3.79;100.00;101894.16;4976366;28;20066;-75
2023/03/27 07:59:31;;;;;;;8.63;2.28;;;;;;;3.85;100.00;101893.53;4976643;28;20050;-78
2023/03/27 08:01:56;;;;;;;8.35;2.10;;;;;;;3.90;100.00;101894.75;4974580;28;20069;-75
2023/03/27 08:04:22;;;;;;;6.50;1.70;;;;;;;3.96;100.00;101895.16;4958723;28;20519;-73
2023/03/27 08:06:50;;;;;;;7.55;2.05;;;;;;;4.02;100.00;101898.03;4959656;28;20489;-74
2023/03/27 08:09:16;;;;;;;9.43;1.90;;;;;;;4.14;100.00;101905.84;4986683;28;20041;-78
2023/03/27 08:11:43;;;;;;;5.75;1.52;;;;;;;4.22;100.00;101905.88;4992864;28;20494;-72
2023/03/27 08:14:08;;;;;;;5.45;1.90;;;;;;;4.28;100.00;101905.25;4959093;28;20027;-77
2023/03/27 08:16:48;;;;;;;8.52;2.00;;;;;;;4.33;100.00;101916.31;4968393;28;20026;-74
2023/03/27 08:19:17;;;;;;;6.68;2.30;;;;;;;4.42;100.00;101915.41;4973389;28;20789;-72
2023/03/27 08:21:42;;;;;;;8.85;2.10;;;;;;;4.49;100.00;101920.97;4974951;28;20023;-75
2023/03/27 08:24:08;;;;;;;7.80;1.83;;;;;;;4.57;100.00;101918.31;4957320;28;20025;-74
2023/03/27 08:26:34;;;;;;;9.57;1.95;;;;;;;4.55;100.00;101924.84;4991654;28;20076;-70
2023/03/27 08:28:59;;;;;;;5.28;1.48;;;;;;;4.48;100.00;101937.19;4993593;28;20458;-73
2023/03/27 08:31:27;;;;;;;5.72;1.60;;;;;;;4.32;100.00;101936.09;4978812;28;20034;-73
2023/03/27 08:33:53;;;;;;;6.70;1.15;;;;;;;4.28;100.00;101937.41;4975045;28;20043;-72
2023/03/27 08:36:18;;;;;;;4.95;1.33;;;;;;;4.23;100.00;101931.69;4974536;28;20076;-72
2023/03/27 08:38:45;;;;;;;6.47;1.25;;;;;;;4.36;100.00;101940.16;4974964;28;20105;-72
2023/03/27 08:41:54;;;;;;;3.22;1.20;;;;;;;4.53;100.00;101945.59;4957164;28;20026;-74
2023/03/27 08:44:23;;;;;;;3.63;1.30;;;;;;;4.48;100.00;101938.03;4885370;29;20028;-71
2023/03/27 08:46:54;;;;;;;4.72;1.25;;;;;;;4.54;100.00;101948.13;4964488;28;20113;-73
2023/03/27 08:49:21;;;;;;;9.15;1.63;;;;;;;4.59;100.00;101955.72;4986789;28;20121;-73
2023/03/27 08:51:55;;;;;;;7.43;1.40;;;;;;;4.60;100.00;101952.88;4994270;28;20026;-74
2023/03/27 08:54:38;;;;;;;6.95;1.65;;;;;;;4.67;100.00;101950.38;4992804;28;20048;-75
2023/03/27 08:57:18;;;;;;;9.02;1.70;;;;;;;4.76;100.00;101946.75;4976225;28;20168;-73
2023/03/27 08:59:45;;;;;;;7.03;1.67;;;;;;;4.87;100.00;101948.31;4994039;28;20022;-74
2023/03/27 09:02:25;;;;;;;5.07;1.55;;;;;;;5.00;100.00;101957.75;4991254;28;20117;-73
2023/03/27 09:04:59;;;;;;;9.27;1.67;;;;;;;5.08;90.56;101972.03;4992290;28;20059;-75
2023/03/27 09:07:37;;;;;;;7.65;1.60;;;;;;;5.14;91.27;101966.03;4960732;28;20618;-75
2023/03/27 09:10:14;;;;;;;7.35;1.42;;;;;;;5.20;92.25;101966.41;4976185;28;20060;-73
2023/03/27 09:12:47;;;;;;;3.28;1.02;;;;;;;5.31;88.51;101966.94;4993430;28;20378;-74
2023/03/27 09:15:17;;;;;;;7.55;1.50;;;;;;;5.45;89.04;101968.16;4993429;28;20080;-75
2023/03/27 09:17:48;;;;;;;5.03;1.95;;;;;;;5.53;84.83;101963.81;4993715;28;20029;-75
2023/03/27 09:20:22;;;;;;;4.05;1.40;;;;;;;5.61;81.19;101971.88;4981961;28;20090;-75
2023/03/27 09:23:07;;;;;;;5.90;1.67;;;;;;;5.64;81.06;101975.06;4973961;28;20035;-78
2023/03/27 09:25:45;;;;;;;5.00;0.90;;;;;;;5.61;88.58;102018.38;4974855;28;20027;-77
2023/03/27 09:28:24;;;;;;;2.75;0.95;;;;;;;5.05;100.00;102023.34;4955873;28;20038;-73
2023/03/27 09:30:49;;;;;;;2.35;0.85;;;;;;;4.43;100.00;102031.47;4956908;28;20449;-76
2023/03/27 09:33:16;;;;;;;4.22;0.95;;;;;;;4.13;100.00;102040.78;4973812;28;20133;-73
2023/03/27 09:35:42;;;;;;;4.30;1.15;;;;;;;3.67;100.00;102038.97;5002591;28;20060;-74
2023/03/27 09:38:23;;;;;;;3.53;0.90;;;;;;;3.32;100.00;102027.19;4991789;28;20112;-72
2023/03/27 09:40:55;;;;;;;6.63;0.95;;;;;;;3.06;100.00;102023.50;4967059;28;20106;-75
2023/03/27 09:43:26;;;;;;;3.58;1.02;;;;;;;2.96;100.00;102013.66;4972979;28;20035;-72
2023/03/27 09:45:53;;;;;;;2.00;0.65;;;;;;;3.03;100.00;102005.91;4956528;28;20034;-75
2023/03/27 09:48:34;;;;;;;4.60;0.93;;;;;;;3.15;100.00;102006.56;4973571;28;20031;-76
2023/03/27 09:51:01;;;;;;;5.78;0.88;;;;;;;3.24;100.00;102007.50;4973920;28;20037;-72
2023/03/27 09:53:27;;;;;;;1.80;0.60;;;;;;;3.28;100.00;102015.09;4974073;28;20038;-72
2023/03/27 09:55:58;;;;;;;3.88;0.75;;;;;;;3.37;100.00;102019.53;4980080;28;20022;-75
2023/03/27 09:58:26;;;;;;;3.08;0.88;;;;;;;3.54;100.00;102019.75;4987968;28;20029;-73
2023/03/27 10:01:18;;;;;;;1.75;0.82;;;;;;;3.68;100.00;102027.28;4991375;28;20056;-73
2023/03/27 10:03:55;;;;;;;1.95;0.82;;;;;;;3.77;100.00;102025.50;4993553;28;20033;-77
2023/03/27 10:06:40;;;;;;;3.10;1.13;;;;;;;3.87;100.00;102030.81;4976175;28;20137;-73
2023/03/27 10:09:19;;;;;;;6.35;1.00;;;;;;;3.96;100.00;102032.56;4976110;28;20462;-78
2023/03/27 10:11:48;;;;;;;4.28;1.08;;;;;;;4.09;100.00;102040.22;4989494;28;20033;-75
2023/03/27 10:14:18;;;;;;;5.55;1.00;;;;;;;4.25;100.00;102045.72;4973184;28;20037;-75
2023/03/27 10:16:46;;;;;;;5.10;1.20;;;;;;;4.40;100.00;102054.06;4986135;28;20026;-76
2023/03/27 10:19:40;;;;;;;6.70;1.27;;;;;;;4.49;100.00;102051.47;4973832;28;20029;-75
2023/03/27 10:22:35;;;;;;;6.72;1.50;;;;;;;4.56;100.00;102039.97;4971948;28;20093;-75
2023/03/27 10:25:05;;;;;;;8.40;2.10;;;;;;;4.70;100.00;102035.03;4973739;28;20054;-71
2023/03/27 10:27:34;;;;;;;5.80;1.95;;;;;;;4.89;100.00;102034.84;4973664;28;20497;-72
2023/03/27 10:30:00;;;;;;;6.07;2.50;;;;;;;5.07;100.00;102028.53;4975724;28;20042;-78
2023/03/27 10:32:45;;;;;;;7.40;2.30;;;;;;;5.24;100.00;102019.59;4983027;28;20025;-73
2023/03/27 10:35:24;;;;;;;8.35;1.33;;;;;;;5.35;100.00;102025.69;4988393;28;20054;-73
2023/03/27 10:37:51;;;;;;;6.63;1.20;;;;;;;5.33;100.00;102028.53;4956016;28;20463;-74
2023/03/27 10:40:19;;;;;;;6.07;1.48;;;;;;;5.47;100.00;102024.38;4955846;28;20023;-74
2023/03/27 10:42:47;;;;;;;5.47;1.08;;;;;;;5.59;100.00;102028.44;4955796;28;20027;-75
2023/03/27 10:45:20;;;;;;;4.03;1.00;;;;;;;5.68;100.00;102024.78;4983387;28;20022;-73
2023/03/27 10:47:55;;;;;;;4.22;1.38;;;;;;;5.85;98.33;102027.50;4972362;28;20093;-77
2023/03/27 10:50:52;;;;;;;5.05;1.25;;;;;;;5.95;86.29;102043.47;4985411;28;20023;-76
2023/03/27 10:53:40;;;;;;;6.20;1.20;;;;;;;5.90;81.48;102032.38;4956034;28;20049;-80
2023/03/27 10:56:36;;;;;;;3.05;1.05;;;;;;;6.12;85.58;102039.00;4962899;28;20445;-74
2023/03/27 10:59:16;;;;;;;4.88;1.17;;;;;;;6.20;79.96;102047.06;4973602;28;20461;-74
2023/03/27 11:01:59;;;;;;;6.70;1.40;;;;;;;6.19;80.15;102059.66;4961688;28;20401;-73
2023/03/27 11:04:43;;;;;;;4.25;1.25;;;;;;;5.74;100.00;102098.50;4989286;28;20054;-74
2023/03/27 11:07:19;;;;;;;4.35;1.08;;;;;;;5.22;100.00;102104.75;4976514;28;20551;-72
2023/03/27 11:09:57;;;;;;;5.20;1.38;;;;;;;4.92;100.00;102106.09;4996731;28;20052;-75
2023/03/27 11:12:24;;;;;;;5.55;1.63;;;;;;;4.57;100.00;102110.50;4976338;28;20023;-74
2023/03/27 11:15:09;;;;;;;3.97;1.23;;;;;;;4.38;100.00;102082.03;4958759;28;20541;-75
2023/03/27 11:18:09;;;;;;;5.28;1.83;;;;;;;4.35;100.00;102088.53;4959038;28;20110;-75
2023/03/27 11:20:44;;;;;;;3.10;1.25;;;;;;;4.30;100.00;102090.81;4965239;28;20026;-75
2023/03/27 11:23:28;;;;;;;6.07;1.67;;;;;;;4.31;100.00;102095.19;4978036;28;20359;-78
2023/03/27 11:26:34;;;;;;;4.32;1.38;;;;;;;4.31;100.00;102084.47;4996526;28;20030;-80
2023/03/27 11:29:23;;;;;;;5.65;1.48;;;;;;;4.37;100.00;102093.75;4900019;29;20028;-80
2023/03/27 11:31:52;;;;;;;6.78;1.60;;;;;;;4.53;100.00;102085.00;4882726;29;20037;-77
2023/03/27 11:34:37;;;;;;;4.90;1.50;;;;;;;4.77;100.00;102081.66;4887852;29;20107;-77
2023/03/27 11:37:19;;;;;;;6.15;1.35;;;;;;;4.88;100.00;102083.28;4922920;28;20101;-77
2023/03/27 11:39:53;;;;;;;4.82;1.20;;;;;;;5.01;100.00;102091.72;4958440;28;20023;-72
2023/03/27 11:42:21;;;;;;;5.63;1.45;;;;;;;5.11;100.00;102097.81;4990771;28;20481;-77
2023/03/27 11:44:47;;;;;;;7.22;1.30;;;;;;;5.09;100.00;102097.16;4976462;28;20027;-76